Time;durP1;ratioP1;P1;durP2;ratioP2;P2;SDS_P1;SDS_P2;PMS_P1;PMS_P2;Temp;Humidity;BMP_temperature;BMP_pressure;BME280_temperature;BME280_humidity;BME280_pressure;Samples;Min_cycle;Max_cycle;Signal;HPM_P1;HPM_P2
2022/11/11 00:01:18;;;;;;;4.18;1.98;;;;;;;;;;21003922;28;20072;-63
2022/11/11 00:11:20;;;;;;;3.20;1.30;;;;;;;;;;21001687;28;20056;-62
2022/11/11 00:32:21;;;;;;;2.00;0.85;;;;;;;;;;21001511;28;20151;-62
2022/11/11 00:42:01;;;;;;;2.45;1.15;;;;;;;;;;21000752;28;20131;-62
2022/11/11 00:52:03;;;;;;;3.25;1.98;;;;;;;;;;20999013;28;20421;-63
2022/11/11 01:02:04;;;;;;;3.17;1.33;;;;;;;;;;21000175;28;20106;-62
2022/11/11 01:12:06;;;;;;;5.88;1.40;;;;;;;;;;20999504;28;20048;-63
2022/11/11 01:22:08;;;;;;;6.05;1.50;;;;;;;;;;20997767;28;20439;-64
2022/11/11 01:32:10;;;;;;;3.00;1.50;;;;;;;;;;20998097;28;20070;-64
2022/11/11 01:42:12;;;;;;;2.80;1.27;;;;;;;;;;20996718;28;20135;-63
2022/11/11 01:52:19;;;;;;;3.45;1.65;;;;;;;;;;20995115;28;20056;-62
2022/11/11 02:02:23;;;;;;;2.17;1.40;;;;;;;;;;20996408;28;20049;-63
2022/11/11 02:22:49;;;;;;;3.22;1.90;;;;;;;;;;20995022;28;20044;-62
2022/11/11 02:32:53;;;;;;;5.38;2.05;;;;;;;;;;21004089;28;20493;-63
2022/11/11 02:42:55;;;;;;;2.88;1.60;;;;;;;;;;21008996;28;20135;-63
2022/11/11 02:53:02;;;;;;;3.67;1.15;;;;;;;;;;21008300;28;20126;-63
2022/11/11 03:03:04;;;;;;;6.25;1.38;;;;;;;;;;21008743;28;20507;-61
2022/11/11 03:13:09;;;;;;;2.15;1.30;;;;;;;;;;21007035;28;20053;-62
2022/11/11 03:23:14;;;;;;;3.08;1.75;;;;;;;;;;21006307;28;20076;-63
2022/11/11 03:33:17;;;;;;;5.88;1.60;;;;;;;;;;21005164;28;20052;-62
2022/11/11 03:43:21;;;;;;;2.55;1.40;;;;;;;;;;21005011;28;20551;-62
2022/11/11 03:53:24;;;;;;;2.58;1.33;;;;;;;;;;21003650;28;20083;-62
2022/11/11 04:34:40;;;;;;;1.73;1.13;;;;;;;;;;21000628;28;20072;-62
2022/11/11 05:05:23;;;;;;;4.15;1.30;;;;;;;;;;20998350;28;20135;-62
2022/11/11 05:25:46;;;;;;;1.85;1.00;;;;;;;;;;20997085;28;20044;-64
2022/11/11 05:35:48;;;;;;;2.50;1.70;;;;;;;;;;20996905;28;20052;-63
2022/11/11 05:45:49;;;;;;;2.88;1.75;;;;;;;;;;20995214;28;20111;-62
2022/11/11 05:55:52;;;;;;;4.40;1.80;;;;;;;;;;20995052;28;20041;-65
2022/11/11 06:05:54;;;;;;;3.30;1.85;;;;;;;;;;21003986;28;20044;-61
2022/11/11 06:15:56;;;;;;;3.78;1.52;;;;;;;;;;21011762;28;20057;-61
2022/11/11 06:26:14;;;;;;;3.03;1.50;;;;;;;;;;21012303;28;20370;-61
2022/11/11 06:36:16;;;;;;;3.35;1.58;;;;;;;;;;21010181;28;20071;-62
2022/11/11 06:46:22;;;;;;;3.95;1.73;;;;;;;;;;21009544;28;20091;-62
2022/11/11 06:56:24;;;;;;;4.13;2.13;;;;;;;;;;21008631;28;20080;-61
2022/11/11 07:06:26;;;;;;;3.47;1.38;;;;;;;;;;21009017;28;20132;-62
2022/11/11 07:16:28;;;;;;;6.97;2.55;;;;;;;;;;21006180;28;20048;-62
2022/11/11 07:26:30;;;;;;;8.05;1.90;;;;;;;;;;21006245;28;20048;-63
2022/11/11 07:36:32;;;;;;;3.85;1.95;;;;;;;;;;21006253;28;20080;-63
2022/11/11 07:46:34;;;;;;;6.30;2.67;;;;;;;;;;21004547;28;20099;-62
2022/11/11 07:56:35;;;;;;;8.52;2.08;;;;;;;;;;21004266;28;20071;-63
2022/11/11 08:06:37;;;;;;;6.95;2.30;;;;;;;;;;21002877;28;20055;-63
2022/11/11 08:16:39;;;;;;;7.82;2.83;;;;;;;;;;21003146;28;20481;-62
2022/11/11 08:26:41;;;;;;;6.32;2.03;;;;;;;;;;21001065;28;20048;-62
2022/11/11 08:36:42;;;;;;;2.65;1.23;;;;;;;;;;21001432;28;20045;-62
2022/11/11 08:46:44;;;;;;;3.60;1.42;;;;;;;;;;20998360;28;20060;-63
2022/11/11 08:56:46;;;;;;;4.60;1.23;;;;;;;;;;20999569;28;20048;-62
2022/11/11 09:06:47;;;;;;;1.27;0.70;;;;;;;;;;20998829;28;20049;-63
2022/11/11 09:16:50;;;;;;;3.65;1.10;;;;;;;;;;20998280;28;20080;-62
2022/11/11 09:26:52;;;;;;;5.10;1.13;;;;;;;;;;20996929;28;20045;-61
2022/11/11 09:36:54;;;;;;;3.65;1.05;;;;;;;;;;20996362;28;20048;-61
2022/11/11 09:47:02;;;;;;;2.25;1.05;;;;;;;;;;20995563;28;20096;-62
2022/11/11 09:57:09;;;;;;;2.00;1.05;;;;;;;;;;20995823;28;20492;-62
2022/11/11 10:07:31;;;;;;;2.53;1.10;;;;;;;;;;20995428;28;20082;-62
2022/11/11 10:17:35;;;;;;;3.25;1.13;;;;;;;;;;20903603;28;20485;-62
2022/11/11 10:27:39;;;;;;;6.28;1.00;;;;;;;;;;20901628;28;20199;-68
2022/11/11 10:37:42;;;;;;;2.50;1.00;;;;;;;;;;20902797;28;20045;-65
2022/11/11 10:47:54;;;;;;;4.47;1.20;;;;;;;;;;20901987;28;20139;-63
2022/11/11 10:58:09;;;;;;;4.97;1.67;;;;;;;;;;20925427;28;20056;-61
2022/11/11 11:08:15;;;;;;;3.17;0.93;;;;;;;;;;20923184;28;20055;-62
2022/11/11 11:18:18;;;;;;;3.97;1.00;;;;;;;;;;20924315;28;20120;-62
2022/11/11 11:28:20;;;;;;;2.38;1.10;;;;;;;;;;20923676;28;20397;-59
2022/11/11 11:38:38;;;;;;;3.13;1.08;;;;;;;;;;20922729;28;20470;-60
2022/11/11 11:48:46;;;;;;;3.03;0.90;;;;;;;;;;20921623;28;20405;-60
2022/11/11 11:58:48;;;;;;;6.35;1.10;;;;;;;;;;20920206;28;20075;-61
2022/11/11 12:09:03;;;;;;;4.15;0.80;;;;;;;;;;20918951;28;20056;-63
2022/11/11 12:19:10;;;;;;;2.17;0.70;;;;;;;;;;20919015;28;20053;-62
2022/11/11 12:29:21;;;;;;;3.97;1.13;;;;;;;;;;20918731;28;20056;-62
2022/11/11 12:39:41;;;;;;;3.63;1.20;;;;;;;;;;20916655;28;20056;-67
2022/11/11 12:49:49;;;;;;;2.78;0.98;;;;;;;;;;20986432;28;20083;-62
2022/11/11 13:00:12;;;;;;;2.20;1.05;;;;;;;;;;20997955;28;20066;-70
2022/11/11 13:10:24;;;;;;;3.40;1.00;;;;;;;;;;20994996;28;20114;-63
2022/11/11 13:20:28;;;;;;;4.38;1.45;;;;;;;;;;20995224;28;20044;-64
2022/11/11 13:30:48;;;;;;;59.78;39.22;;;;;;;;;;20993946;28;20063;-59
2022/11/11 13:40:52;;;;;;;81.28;50.15;;;;;;;;;;20992372;28;20087;-71
2022/11/11 13:51:09;;;;;;;3.85;2.50;;;;;;;;;;20995969;28;20408;-61
2022/11/11 14:01:11;;;;;;;1.23;0.55;;;;;;;;;;20996287;28;20476;-62
2022/11/11 14:11:39;;;;;;;4.95;1.83;;;;;;;;;;20995600;28;20056;-62
2022/11/11 14:21:53;;;;;;;3.67;1.70;;;;;;;;;;20993365;28;20059;-63
2022/11/11 14:32:21;;;;;;;4.07;2.65;;;;;;;;;;21011784;28;20531;-62
2022/11/11 14:42:40;;;;;;;5.65;2.65;;;;;;;;;;21009421;28;20054;-63
2022/11/11 14:52:42;;;;;;;7.13;3.03;;;;;;;;;;21007850;28;20140;-61
2022/11/11 15:02:47;;;;;;;4.18;1.52;;;;;;;;;;21008136;28;20045;-62
2022/11/11 15:13:24;;;;;;;6.85;3.38;;;;;;;;;;21007764;28;20128;-62
2022/11/11 15:23:44;;;;;;;5.93;2.17;;;;;;;;;;20832293;28;20085;-60
2022/11/11 15:33:47;;;;;;;8.95;1.63;;;;;;;;;;20831401;28;20050;-62
2022/11/11 15:43:49;;;;;;;5.72;1.67;;;;;;;;;;20831693;28;20402;-62
2022/11/11 15:53:50;;;;;;;3.35;1.27;;;;;;;;;;20921413;28;20127;-61
2022/11/11 16:03:52;;;;;;;5.18;1.70;;;;;;;;;;21003100;28;20048;-61
2022/11/11 16:13:54;;;;;;;4.07;1.48;;;;;;;;;;21003651;28;20048;-62
2022/11/11 16:23:57;;;;;;;5.13;3.38;;;;;;;;;;21002199;28;20087;-67
2022/11/11 16:33:59;;;;;;;5.13;2.15;;;;;;;;;;21001415;28;20060;-64
2022/11/11 16:44:01;;;;;;;5.38;2.15;;;;;;;;;;20999258;28;20052;-65
2022/11/11 16:54:12;;;;;;;4.93;2.42;;;;;;;;;;20997737;28;20131;-69
2022/11/11 17:04:14;;;;;;;9.75;4.05;;;;;;;;;;20998951;28;20079;-68
2022/11/11 17:14:16;;;;;;;7.72;3.47;;;;;;;;;;20997564;28;20052;-69
2022/11/11 17:24:17;;;;;;;7.78;3.55;;;;;;;;;;20997882;28;20040;-65
2022/11/11 17:34:19;;;;;;;5.00;1.60;;;;;;;;;;20994494;28;20080;-69
2022/11/11 17:44:21;;;;;;;3.05;1.90;;;;;;;;;;20996014;28;20056;-69
2022/11/11 17:54:26;;;;;;;6.07;2.30;;;;;;;;;;20994670;28;20055;-66
2022/11/11 18:04:27;;;;;;;6.30;2.45;;;;;;;;;;20994777;28;20044;-70
2022/11/11 18:14:29;;;;;;;7.40;2.05;;;;;;;;;;20995282;28;20464;-68
2022/11/11 18:24:31;;;;;;;9.82;4.03;;;;;;;;;;20993809;28;20049;-70
2022/11/11 18:34:33;;;;;;;5.38;2.72;;;;;;;;;;20995479;28;20056;-66
2022/11/11 18:44:35;;;;;;;6.13;3.00;;;;;;;;;;20994228;28;20122;-70
2022/11/11 18:54:36;;;;;;;4.57;2.83;;;;;;;;;;20994092;28;20048;-67
2022/11/11 19:04:38;;;;;;;5.85;2.70;;;;;;;;;;20993989;28;20389;-69
2022/11/11 19:14:40;;;;;;;7.78;2.90;;;;;;;;;;21002244;28;20045;-73
2022/11/11 19:24:42;;;;;;;5.80;2.42;;;;;;;;;;21007761;28;20094;-72
2022/11/11 19:34:43;;;;;;;12.35;4.03;;;;;;;;;;21007317;28;20052;-70
2022/11/11 19:44:45;;;;;;;13.07;6.90;;;;;;;;;;21006261;28;20059;-68
2022/11/11 19:54:47;;;;;;;7.85;3.95;;;;;;;;;;21004507;28;20100;-62
2022/11/11 20:04:48;;;;;;;6.13;3.17;;;;;;;;;;21006116;28;20083;-62
2022/11/11 20:14:50;;;;;;;7.60;3.65;;;;;;;;;;21004217;28;20401;-61
2022/11/11 20:24:52;;;;;;;6.05;3.05;;;;;;;;;;21003133;28;20409;-63
2022/11/11 20:34:54;;;;;;;7.15;3.22;;;;;;;;;;21001264;28;20048;-62
2022/11/11 20:44:55;;;;;;;9.65;3.17;;;;;;;;;;21000725;28;20055;-63
2022/11/11 20:54:57;;;;;;;8.15;2.95;;;;;;;;;;20999633;28;20542;-61
2022/11/11 21:04:59;;;;;;;5.53;2.55;;;;;;;;;;20999033;28;20412;-61
2022/11/11 21:15:02;;;;;;;5.63;2.15;;;;;;;;;;20998175;28;20159;-62
2022/11/11 21:25:04;;;;;;;8.02;1.92;;;;;;;;;;20997970;28;20063;-62
2022/11/11 21:35:06;;;;;;;7.47;2.28;;;;;;;;;;20995509;28;20512;-62
2022/11/11 21:45:07;;;;;;;7.22;2.63;;;;;;;;;;20995558;28;20048;-63
2022/11/11 21:55:09;;;;;;;10.40;4.40;;;;;;;;;;20994354;28;20417;-61
2022/11/11 22:05:11;;;;;;;4.10;1.90;;;;;;;;;;20994719;28;20049;-60
2022/11/11 22:15:12;;;;;;;6.57;2.10;;;;;;;;;;20995176;28;20453;-61
2022/11/11 22:25:14;;;;;;;7.75;2.83;;;;;;;;;;20994676;28;20123;-61
2022/11/11 22:35:16;;;;;;;9.68;2.20;;;;;;;;;;20993891;28;20083;-60
2022/11/11 22:45:17;;;;;;;6.45;2.47;;;;;;;;;;20996110;28;20098;-62
2022/11/11 22:55:19;;;;;;;5.15;2.60;;;;;;;;;;21009843;28;20071;-63
2022/11/11 23:05:21;;;;;;;8.18;2.47;;;;;;;;;;21007970;28;20048;-62
2022/11/11 23:15:23;;;;;;;8.40;2.53;;;;;;;;;;21006921;28;20048;-61
2022/11/11 23:25:24;;;;;;;6.00;2.25;;;;;;;;;;21006201;28;20075;-62
2022/11/11 23:35:26;;;;;;;6.55;2.70;;;;;;;;;;21006430;28;20114;-61
2022/11/11 23:45:28;;;;;;;7.13;3.80;;;;;;;;;;21006225;28;20049;-61
2022/11/11 23:55:29;;;;;;;4.35;2.08;;;;;;;;;;21004374;28;20052;-61
